Terminal Aerodrome Forecast
Issued by NWS Sterling, VA

Current Version | Previous Version | Text Only | Print | Product List | Glossary Off
Versions: 1 2 3 4 5 6 7 8 9 10 11 12 13 14

000
FTUS41 KLWX 282339
TAFMRB
TAF
KMRB 282339Z 2900/2924 13005KT P6SM FEW150
      TEMPO 2910/2913 5SM BR
     FM291300 VRB04KT P6SM SCT150=

USA.gov is the U.S. government's official web portal to all federal, state and local government web resources and services.